Time;durP1;ratioP1;P1;durP2;ratioP2;P2;SDS_P1;SDS_P2;PMS_P1;PMS_P2;Temp;Humidity;BMP_temperature;BMP_pressure;BME280_temperature;BME280_humidity;BME280_pressure;Samples;Min_cycle;Max_cycle;Signal;HPM_P1;HPM_P2
2022/05/03 00:01:11;;;;;;;14.82;9.90;;;10.60;99.90;;;;;;6185889;23;20004;-87
2022/05/03 00:03:55;;;;;;;12.32;9.40;;;10.60;99.90;;;;;;6210066;23;20001;-88
2022/05/03 00:06:26;;;;;;;15.57;9.38;;;10.50;99.90;;;;;;6186690;23;20012;-87
2022/05/03 00:09:16;;;;;;;11.95;9.57;;;10.30;99.90;;;;;;6186695;23;20008;-88
2022/05/03 00:12:15;;;;;;;12.85;10.25;;;10.20;99.90;;;;;;6210767;23;20063;-88
2022/05/03 00:15:00;;;;;;;12.50;9.48;;;10.30;99.90;;;;;;6185735;23;20021;-87
2022/05/03 00:17:26;;;;;;;16.42;9.98;;;10.30;99.90;;;;;;6210468;23;20029;-88
2022/05/03 00:19:53;;;;;;;11.55;9.90;;;10.30;99.90;;;;;;6187036;23;20060;-87
2022/05/03 00:22:19;;;;;;;13.05;9.98;;;10.40;99.90;;;;;;6209673;23;20009;-88
2022/05/03 00:24:45;;;;;;;19.67;9.93;;;10.30;99.90;;;;;;6210141;23;20005;-88
2022/05/03 00:27:13;;;;;;;13.30;10.07;;;10.30;99.90;;;;;;6210058;23;20012;-88
2022/05/03 00:29:39;;;;;;;12.80;9.20;;;10.20;99.90;;;;;;6186483;23;20005;-88
2022/05/03 00:32:05;;;;;;;14.32;9.30;;;10.20;99.90;;;;;;6188482;23;20011;-88
2022/05/03 00:34:35;;;;;;;11.30;9.07;;;10.20;99.90;;;;;;6187104;23;20500;-88
2022/05/03 00:37:01;;;;;;;11.88;8.80;;;10.20;99.90;;;;;;6187179;23;20355;-87
2022/05/03 00:39:27;;;;;;;16.48;9.23;;;10.10;99.90;;;;;;6187361;23;20008;-87
2022/05/03 00:42:12;;;;;;;12.32;9.40;;;10.10;99.90;;;;;;6185142;23;20009;-87
2022/05/03 00:44:56;;;;;;;13.07;9.65;;;10.00;99.90;;;;;;6210155;23;20009;-87
2022/05/03 00:48:06;;;;;;;16.02;9.77;;;10.00;99.90;;;;;;6186021;23;20093;-87
2022/05/03 00:50:36;;;;;;;13.48;9.50;;;10.00;99.90;;;;;;6186617;23;20001;-87
2022/05/03 00:53:20;;;;;;;15.60;9.02;;;9.90;99.90;;;;;;6186693;23;20469;-86
2022/05/03 00:55:51;;;;;;;14.77;9.38;;;9.90;99.90;;;;;;6210225;23;20108;-87
2022/05/03 00:58:26;;;;;;;12.15;9.63;;;9.90;99.90;;;;;;6209993;23;20005;-87
2022/05/03 01:01:09;;;;;;;14.32;9.57;;;9.90;99.90;;;;;;6209506;23;20024;-86
2022/05/03 01:03:53;;;;;;;14.55;9.68;;;9.90;99.90;;;;;;6186609;23;20061;-86
2022/05/03 01:06:37;;;;;;;11.70;8.63;;;9.90;99.90;;;;;;6186904;23;20080;-88
2022/05/03 01:09:06;;;;;;;12.75;8.63;;;9.80;99.90;;;;;;6208333;23;20056;-88
2022/05/03 01:11:48;;;;;;;14.35;9.02;;;9.80;99.90;;;;;;6184342;23;20032;-89
2022/05/03 01:15:02;;;;;;;11.75;9.50;;;9.80;99.90;;;;;;6208912;23;20180;-88
2022/05/03 01:17:48;;;;;;;12.70;8.43;;;9.90;99.90;;;;;;6171945;23;20028;-92
2022/05/03 01:20:30;;;;;;;13.15;9.00;;;9.80;99.90;;;;;;6186804;23;20012;-91
2022/05/03 01:23:09;;;;;;;;;;;9.80;99.90;;;;;;6211229;23;20436;-92
2022/05/03 01:25:52;;;;;;;13.40;8.68;;;9.70;99.90;;;;;;6185619;23;19904;-89
2022/05/03 01:28:30;;;;;;;14.15;9.57;;;9.60;99.90;;;;;;6184736;23;20035;-92
2022/05/03 01:31:05;;;;;;;14.30;9.23;;;9.70;99.90;;;;;;6186767;23;20458;-91
2022/05/03 01:33:38;;;;;;;13.98;9.73;;;9.70;99.90;;;;;;6188175;23;20005;-90
2022/05/03 01:36:08;;;;;;;13.48;9.13;;;9.60;99.90;;;;;;6185143;23;20013;-91
2022/05/03 01:38:38;;;;;;;14.05;8.82;;;9.60;99.90;;;;;;6208521;23;20055;-89
2022/05/03 01:41:29;;;;;;;14.90;9.27;;;9.70;99.90;;;;;;6184365;23;20001;-89
2022/05/03 01:43:59;;;;;;;13.57;9.80;;;9.70;99.90;;;;;;6184253;23;20455;-89
2022/05/03 01:46:29;;;;;;;15.45;9.27;;;9.60;99.90;;;;;;6184262;23;19997;-90
2022/05/03 01:52:00;;;;;;;14.27;10.38;;;9.60;99.90;;;;;;6184076;23;20525;-89
2022/05/03 01:54:26;;;;;;;12.60;9.70;;;9.60;99.90;;;;;;6183133;23;20025;-88
2022/05/03 01:57:04;;;;;;;13.75;9.43;;;9.70;99.90;;;;;;6213128;23;19989;-91
2022/05/03 01:59:48;;;;;;;13.68;9.15;;;9.60;99.90;;;;;;6220236;22;20021;-85
2022/05/03 02:02:49;;;;;;;11.73;9.05;;;9.50;99.90;;;;;;6185045;23;20319;-87
2022/05/03 02:05:38;;;;;;;14.80;9.95;;;9.50;99.90;;;;;;6184919;23;20005;-88
2022/05/03 02:08:08;;;;;;;15.18;10.10;;;9.60;99.90;;;;;;6185296;23;20023;-87
2022/05/03 02:10:58;;;;;;;14.17;9.73;;;9.60;99.90;;;;;;6182628;23;20060;-87
2022/05/03 02:16:59;;;;;;;17.95;8.95;;;9.60;99.90;;;;;;6185052;23;20036;-87
2022/05/03 02:19:49;;;;;;;13.63;9.98;;;9.60;99.90;;;;;;6184568;23;20005;-89
2022/05/03 02:22:30;;;;;;;18.98;10.30;;;9.60;99.90;;;;;;6185406;23;20001;-89
2022/05/03 02:25:08;;;;;;;14.38;10.13;;;9.60;99.90;;;;;;6186965;23;20052;-87
2022/05/03 02:27:35;;;;;;;15.57;10.48;;;9.60;99.90;;;;;;6215050;23;20206;-89
2022/05/03 02:30:03;;;;;;;16.75;10.35;;;9.60;99.90;;;;;;6184637;23;20077;-87
2022/05/03 02:32:47;;;;;;;14.02;10.50;;;9.60;99.90;;;;;;6185886;23;20047;-89
2022/05/03 02:35:20;;;;;;;13.90;10.45;;;9.60;99.90;;;;;;6185696;23;20005;-89
2022/05/03 02:37:55;;;;;;;17.98;10.05;;;9.60;99.90;;;;;;6185315;23;20055;-88
2022/05/03 02:40:25;;;;;;;13.18;9.68;;;9.60;99.90;;;;;;6185586;23;20434;-86
2022/05/03 02:42:51;;;;;;;12.07;9.63;;;9.60;99.90;;;;;;6185467;23;20012;-87
2022/05/03 02:45:18;;;;;;;14.50;10.27;;;9.60;99.90;;;;;;6208041;23;20166;-86
2022/05/03 02:48:17;;;;;;;17.58;10.57;;;9.60;99.90;;;;;;6185400;23;20471;-88
2022/05/03 02:50:57;;;;;;;13.23;9.82;;;9.60;99.90;;;;;;6184939;23;20004;-88
2022/05/03 02:53:51;;;;;;;14.13;10.57;;;9.60;99.90;;;;;;6208811;23;20001;-86
2022/05/03 02:56:28;;;;;;;14.65;10.77;;;9.60;99.90;;;;;;6186704;23;20487;-88
2022/05/03 02:59:12;;;;;;;18.35;11.60;;;9.60;99.90;;;;;;6185258;23;20005;-87
2022/05/03 03:01:59;;;;;;;20.48;12.05;;;9.60;99.90;;;;;;6185666;23;20024;-87
2022/05/03 03:04:43;;;;;;;15.80;10.90;;;9.60;99.90;;;;;;6208750;23;20036;-88
2022/05/03 03:07:14;;;;;;;18.20;10.55;;;9.60;99.90;;;;;;6184761;23;20432;-87
2022/05/03 03:09:43;;;;;;;18.70;11.13;;;9.60;99.90;;;;;;6183457;23;20001;-88
2022/05/03 03:12:14;;;;;;;19.67;11.68;;;9.70;99.90;;;;;;6184886;23;20432;-88
2022/05/03 03:14:45;;;;;;;;;;;9.70;99.90;;;;;;6209087;23;20056;-87
2022/05/03 03:17:12;;;;;;;15.02;10.80;;;9.70;99.90;;;;;;6208292;23;19978;-88
2022/05/03 03:19:58;;;;;;;19.38;11.38;;;9.70;99.90;;;;;;6183295;23;20033;-89
2022/05/03 03:22:30;;;;;;;16.50;11.32;;;9.70;99.90;;;;;;6185196;23;20067;-89
2022/05/03 03:24:57;;;;;;;20.88;11.95;;;9.70;99.90;;;;;;6183354;23;20032;-88
2022/05/03 03:27:26;;;;;;;16.35;10.80;;;9.70;99.90;;;;;;6183444;23;20005;-89
2022/05/03 03:29:56;;;;;;;13.18;10.38;;;9.70;99.90;;;;;;6183259;23;20101;-88
2022/05/03 03:32:25;;;;;;;20.65;11.05;;;9.60;99.90;;;;;;6184627;23;20001;-87
2022/05/03 03:34:53;;;;;;;15.07;10.55;;;9.70;99.90;;;;;;6183330;23;20075;-89
2022/05/03 03:37:22;;;;;;;13.50;10.02;;;9.60;99.90;;;;;;6185479;23;20068;-87
2022/05/03 03:39:47;;;;;;;14.65;10.15;;;9.50;99.90;;;;;;6183432;23;20088;-86
2022/05/03 03:42:13;;;;;;;11.98;9.05;;;9.40;99.90;;;;;;6184302;23;20005;-89
2022/05/03 03:44:39;;;;;;;14.13;9.68;;;9.40;99.90;;;;;;6187293;23;20001;-89
2022/05/03 03:47:04;;;;;;;12.55;9.57;;;9.30;99.90;;;;;;6187015;23;20108;-89
2022/05/03 03:49:30;;;;;;;16.52;10.25;;;9.30;99.90;;;;;;6210640;23;19997;-89
2022/05/03 03:52:00;;;;;;;16.27;11.18;;;9.30;99.90;;;;;;6187231;23;20001;-87
2022/05/03 03:54:26;;;;;;;22.52;11.50;;;9.30;99.90;;;;;;6185604;23;20016;-90
2022/05/03 03:56:54;;;;;;;14.00;10.18;;;9.40;99.90;;;;;;6186685;23;20009;-88
2022/05/03 03:59:20;;;;;;;16.67;11.70;;;9.40;99.90;;;;;;6187162;23;20019;-87
2022/05/03 04:01:49;;;;;;;19.35;12.68;;;9.40;99.90;;;;;;6185112;23;20087;-88
2022/05/03 04:04:16;;;;;;;19.92;11.40;;;9.40;99.90;;;;;;6187249;23;20040;-88
2022/05/03 04:06:42;;;;;;;17.25;10.55;;;9.40;99.90;;;;;;6185044;23;20005;-88
2022/05/03 04:09:08;;;;;;;15.82;10.15;;;9.40;99.90;;;;;;6185261;23;20005;-88
2022/05/03 04:11:43;;;;;;;17.27;10.35;;;9.30;99.90;;;;;;6186678;23;20008;-89
2022/05/03 04:14:10;;;;;;;17.17;11.65;;;9.40;99.90;;;;;;6210616;23;20005;-88
2022/05/03 04:16:36;;;;;;;12.88;9.80;;;9.40;99.90;;;;;;6184908;23;20042;-88
2022/05/03 04:19:01;;;;;;;13.68;9.65;;;9.30;99.90;;;;;;6187437;23;20024;-87
2022/05/03 04:21:27;;;;;;;16.20;11.07;;;9.30;99.90;;;;;;6186370;23;20107;-87
2022/05/03 04:23:52;;;;;;;17.73;11.45;;;9.20;99.90;;;;;;6186978;23;20108;-86
2022/05/03 04:26:18;;;;;;;21.33;12.60;;;9.30;99.90;;;;;;6186932;23;20031;-86
2022/05/03 04:28:43;;;;;;;18.38;11.65;;;9.30;99.90;;;;;;6184255;23;20005;-87
2022/05/03 04:31:09;;;;;;;14.23;11.48;;;9.30;99.90;;;;;;6186044;23;19993;-85
2022/05/03 04:33:35;;;;;;;15.00;11.45;;;9.40;99.90;;;;;;6186642;23;20463;-86
2022/05/03 04:36:00;;;;;;;16.52;11.52;;;9.50;99.90;;;;;;6186740;23;20085;-88
2022/05/03 04:38:26;;;;;;;21.10;11.77;;;9.40;99.90;;;;;;6184745;23;20435;-88
2022/05/03 04:41:02;;;;;;;20.30;12.00;;;9.60;99.90;;;;;;6184678;23;20092;-87
2022/05/03 04:43:28;;;;;;;14.82;11.93;;;9.60;99.90;;;;;;6184835;23;20008;-87
2022/05/03 04:45:54;;;;;;;15.77;11.15;;;9.70;99.90;;;;;;6186759;23;20009;-85
2022/05/03 04:48:20;;;;;;;17.75;11.73;;;9.70;99.90;;;;;;6186503;23;20499;-87
2022/05/03 04:50:47;;;;;;;17.30;11.35;;;9.80;99.90;;;;;;6186274;23;19997;-87
2022/05/03 04:53:16;;;;;;;18.63;11.73;;;9.80;99.90;;;;;;6185833;23;20076;-87
2022/05/03 04:55:41;;;;;;;18.23;11.75;;;9.80;99.90;;;;;;6184286;23;20028;-87
2022/05/03 04:58:07;;;;;;;18.92;11.98;;;9.90;99.90;;;;;;6185065;23;20455;-85
2022/05/03 05:00:34;;;;;;;15.80;11.35;;;9.90;99.90;;;;;;6185692;23;20443;-87
2022/05/03 05:02:59;;;;;;;15.40;12.13;;;10.00;99.90;;;;;;6183937;23;20051;-86
2022/05/03 05:05:25;;;;;;;16.88;10.88;;;10.00;99.90;;;;;;6188220;23;20037;-89
2022/05/03 05:07:51;;;;;;;14.98;10.18;;;10.10;99.90;;;;;;6186260;23;20005;-86
2022/05/03 05:10:30;;;;;;;15.77;10.90;;;10.20;99.90;;;;;;6185155;23;20059;-91
2022/05/03 05:12:56;;;;;;;18.70;11.90;;;10.20;99.90;;;;;;6185674;23;20037;-90
2022/05/03 05:15:26;;;;;;;14.88;11.38;;;10.30;99.90;;;;;;6185753;23;20008;-89
2022/05/03 05:17:55;;;;;;;20.75;12.07;;;10.30;99.90;;;;;;6184053;23;20005;-89
2022/05/03 05:20:24;;;;;;;18.50;11.50;;;10.30;99.90;;;;;;6185660;23;20005;-86
2022/05/03 05:22:56;;;;;;;15.70;11.15;;;10.30;99.90;;;;;;6185014;23;20009;-88
2022/05/03 05:25:22;;;;;;;16.23;11.30;;;10.40;99.90;;;;;;6184691;23;20009;-88
2022/05/03 05:27:48;;;;;;;16.42;11.85;;;10.40;99.90;;;;;;6183988;23;20012;-87
2022/05/03 05:30:14;;;;;;;15.15;10.60;;;10.50;99.90;;;;;;6185485;23;20289;-87
2022/05/03 05:32:39;;;;;;;17.27;11.18;;;10.60;99.90;;;;;;6185878;23;20055;-85
2022/05/03 05:35:05;;;;;;;18.88;11.95;;;10.70;99.90;;;;;;6185840;23;20012;-88
2022/05/03 05:37:32;;;;;;;16.63;11.85;;;10.80;99.90;;;;;;6185979;23;20001;-87
2022/05/03 05:39:57;;;;;;;24.83;12.32;;;10.90;99.90;;;;;;6185665;23;20493;-88
2022/05/03 05:42:23;;;;;;;18.42;12.00;;;10.90;99.90;;;;;;6185316;23;20072;-90
2022/05/03 05:44:49;;;;;;;15.45;12.27;;;11.00;99.90;;;;;;6184747;23;20032;-87
2022/05/03 05:47:14;;;;;;;16.30;11.35;;;11.00;99.90;;;;;;6183876;23;20005;-89
2022/05/03 05:49:40;;;;;;;21.08;11.93;;;11.10;99.90;;;;;;6183457;23;20025;-89
2022/05/03 05:54:51;;;;;;;13.80;10.23;;;11.30;99.90;;;;;;6184329;23;20059;-87
2022/05/03 05:57:16;;;;;;;14.68;10.10;;;11.50;99.90;;;;;;6184703;23;20009;-86
2022/05/03 05:59:42;;;;;;;16.20;10.48;;;11.60;99.90;;;;;;6184477;23;20459;-87
2022/05/03 06:02:08;;;;;;;19.42;11.15;;;11.70;99.90;;;;;;6183098;23;20092;-89
2022/05/03 06:04:33;;;;;;;15.50;11.38;;;11.80;99.90;;;;;;6184887;23;20005;-88
2022/05/03 06:06:59;;;;;;;13.30;9.80;;;11.90;99.90;;;;;;6183042;23;20088;-89
2022/05/03 06:09:25;;;;;;;14.75;10.27;;;12.00;99.90;;;;;;6209137;23;20005;-89
2022/05/03 06:11:51;;;;;;;18.05;10.05;;;12.10;99.90;;;;;;6193004;23;20052;-92
2022/05/03 06:14:17;;;;;;;14.10;10.55;;;12.20;99.90;;;;;;6185180;23;20005;-89
2022/05/03 06:16:49;;;;;;;14.75;9.88;;;12.30;99.90;;;;;;6185781;23;20001;-87
2022/05/03 06:19:15;;;;;;;12.70;9.02;;;12.40;99.90;;;;;;6207926;23;20328;-91
2022/05/03 06:21:40;;;;;;;12.88;9.52;;;12.50;99.90;;;;;;6184400;23;20008;-89
2022/05/03 06:24:07;;;;;;;16.58;9.43;;;12.70;99.90;;;;;;6185179;23;20005;-89
2022/05/03 06:26:32;;;;;;;15.15;8.98;;;12.70;99.90;;;;;;6208099;23;20005;-89
2022/05/03 06:28:59;;;;;;;13.73;8.88;;;12.80;99.90;;;;;;6185184;23;20017;-89
2022/05/03 06:31:24;;;;;;;13.05;8.70;;;13.00;99.90;;;;;;6209064;23;20390;-88
2022/05/03 06:33:50;;;;;;;11.15;8.32;;;13.10;99.90;;;;;;6184138;23;20001;-86
2022/05/03 06:36:16;;;;;;;11.43;7.90;;;13.20;99.90;;;;;;6208226;23;20041;-88
2022/05/03 06:38:43;;;;;;;10.10;7.68;;;13.30;99.90;;;;;;6184698;23;20325;-89
2022/05/03 06:41:10;;;;;;;11.90;8.38;;;13.50;99.90;;;;;;6209770;23;20013;-88
2022/05/03 06:43:35;;;;;;;12.60;7.55;;;13.60;99.90;;;;;;6209311;23;20039;-89
2022/05/03 06:46:01;;;;;;;15.20;8.10;;;13.70;99.90;;;;;;6208420;23;20013;-88
2022/05/03 06:48:33;;;;;;;10.00;7.65;;;13.80;99.90;;;;;;6182526;23;20052;-88
2022/05/03 06:50:59;;;;;;;14.05;7.15;;;13.80;99.90;;;;;;6185128;23;20015;-86
2022/05/03 06:53:25;;;;;;;16.13;7.32;;;13.90;99.90;;;;;;6183873;23;20062;-88
2022/05/03 06:55:50;;;;;;;12.55;7.97;;;14.00;99.90;;;;;;6208593;23;20048;-88
2022/05/03 06:58:19;;;;;;;14.60;7.25;;;14.00;99.90;;;;;;6183047;23;20040;-87
2022/05/03 07:00:49;;;;;;;12.60;7.50;;;14.00;99.90;;;;;;6184686;23;20009;-88
2022/05/03 07:03:38;;;;;;;12.35;7.00;;;14.10;99.90;;;;;;6185196;23;20344;-88
2022/05/03 07:06:04;;;;;;;8.00;6.80;;;14.10;99.90;;;;;;6185593;23;20009;-87
2022/05/03 07:08:34;;;;;;;12.75;6.60;;;14.10;99.90;;;;;;6185431;23;20105;-88
2022/05/03 07:11:17;;;;;;;8.13;7.30;;;14.10;99.90;;;;;;6208462;23;20033;-88
2022/05/03 07:13:52;;;;;;;11.48;7.05;;;14.10;99.90;;;;;;6185851;23;20428;-88
2022/05/03 07:16:20;;;;;;;10.90;7.18;;;14.10;99.90;;;;;;6209405;23;20005;-88
2022/05/03 07:24:14;;;;;;;10.13;7.38;;;14.10;99.90;;;;;;6187451;23;20036;-88
2022/05/03 07:26:39;;;;;;;12.05;7.32;;;14.10;99.90;;;;;;6210427;23;20673;-87
2022/05/03 07:29:05;;;;;;;11.60;7.30;;;14.20;99.90;;;;;;6211144;23;20028;-87
2022/05/03 07:31:31;;;;;;;10.23;7.10;;;14.30;99.90;;;;;;6185624;23;20001;-87
2022/05/03 07:33:57;;;;;;;8.82;6.70;;;14.30;99.90;;;;;;6186851;23;20032;-87
2022/05/03 07:36:22;;;;;;;13.90;7.72;;;14.40;99.90;;;;;;6210557;23;20013;-87
2022/05/03 07:38:48;;;;;;;13.02;6.93;;;14.60;99.90;;;;;;6187464;23;20001;-88
2022/05/03 07:41:14;;;;;;;10.85;6.35;;;14.70;99.80;;;;;;6185318;23;20008;-87
2022/05/03 07:43:41;;;;;;;9.32;7.00;;;14.80;99.20;;;;;;6187255;23;20064;-87
2022/05/03 07:46:07;;;;;;;11.27;7.15;;;15.00;97.80;;;;;;6185764;23;20478;-87
2022/05/03 07:48:33;;;;;;;9.15;6.45;;;15.10;98.40;;;;;;6186868;23;20206;-88
2022/05/03 07:50:58;;;;;;;11.63;7.03;;;15.20;97.20;;;;;;6210495;23;20039;-87
2022/05/03 07:53:24;;;;;;;9.13;6.20;;;15.20;97.00;;;;;;6186791;23;20032;-86
2022/05/03 07:55:53;;;;;;;8.40;5.50;;;15.30;96.60;;;;;;6185215;23;20001;-88
2022/05/03 07:58:20;;;;;;;13.57;5.70;;;15.40;97.30;;;;;;6186642;23;20004;-86
2022/05/03 08:00:46;;;;;;;11.18;6.07;;;15.60;95.00;;;;;;6211156;23;20001;-88
2022/05/03 08:03:13;;;;;;;7.95;5.80;;;15.70;94.00;;;;;;6186866;23;20089;-87
2022/05/03 08:05:38;;;;;;;8.52;5.32;;;15.80;93.60;;;;;;6187970;23;20055;-87
2022/05/03 08:08:04;;;;;;;14.40;5.93;;;15.80;94.50;;;;;;6209769;23;20444;-85
2022/05/03 08:10:30;;;;;;;9.82;5.78;;;15.80;93.90;;;;;;6210297;23;20005;-85
2022/05/03 08:12:55;;;;;;;9.05;5.95;;;15.90;93.50;;;;;;6186674;23;20005;-87
2022/05/03 08:15:22;;;;;;;10.10;6.05;;;16.00;92.10;;;;;;6185365;23;20063;-86
2022/05/03 08:17:48;;;;;;;9.43;6.15;;;16.10;91.70;;;;;;6186459;23;20005;-87
2022/05/03 08:20:14;;;;;;;9.85;6.43;;;16.10;92.20;;;;;;6186789;23;20082;-87
2022/05/03 08:22:41;;;;;;;8.52;5.68;;;16.20;91.40;;;;;;6210172;23;20439;-87
2022/05/03 08:25:13;;;;;;;14.77;6.97;;;16.30;90.60;;;;;;6187204;23;20001;-89
2022/05/03 08:27:41;;;;;;;8.65;5.75;;;16.30;90.60;;;;;;6186148;23;19997;-88
2022/05/03 08:30:09;;;;;;;10.15;5.85;;;16.40;90.30;;;;;;6209827;23;20056;-88
2022/05/03 08:32:37;;;;;;;9.10;5.90;;;16.60;90.20;;;;;;6186943;23;20059;-89
2022/05/03 08:35:24;;;;;;;7.72;5.68;;;16.70;87.80;;;;;;6185362;23;20032;-88
2022/05/03 08:43:18;;;;;;;9.13;6.05;;;17.00;84.60;;;;;;6186885;23;20031;-87
2022/05/03 08:45:48;;;;;;;7.38;5.75;;;17.10;83.60;;;;;;6210576;23;20432;-87
2022/05/03 08:48:20;;;;;;;6.88;5.70;;;17.20;83.30;;;;;;6186403;23;20020;-87
2022/05/03 08:51:02;;;;;;;8.77;5.65;;;17.20;82.90;;;;;;6184960;23;20016;-87
2022/05/03 08:53:29;;;;;;;8.15;5.95;;;17.40;81.80;;;;;;6186431;23;20008;-87
2022/05/03 08:56:30;;;;;;;8.50;5.32;;;17.50;81.00;;;;;;6186853;23;20005;-88
2022/05/03 08:59:34;;;;;;;;;;;;;;;;;;;;;
2022/05/03 09:02:20;;;;;;;8.13;5.07;;;17.50;80.00;;;;;;6181306;23;20064;-88
2022/05/03 09:05:34;;;;;;;;;;;;;;;;;;;;;
2022/05/03 09:11:27;;;;;;;10.43;5.82;;;18.00;77.40;;;;;;6168920;23;20067;-88
2022/05/03 09:17:59;;;;;;;9.43;5.20;;;18.40;74.80;;;;;;6176569;23;20495;-87
2022/05/03 09:26:57;;;;;;;7.68;4.78;;;18.80;66.50;;;;;;6186305;23;20023;-86
2022/05/03 09:29:33;;;;;;;5.60;4.65;;;19.00;65.70;;;;;;6122335;23;20005;-88
2022/05/03 09:34:50;;;;;;;5.57;4.40;;;19.00;62.30;;;;;;6154590;23;20001;-87
2022/05/03 09:37:15;;;;;;;7.40;4.93;;;19.10;63.00;;;;;;6184555;23;20346;-87
2022/05/03 09:39:47;;;;;;;8.23;4.95;;;19.10;63.40;;;;;;6186265;23;20062;-88
2022/05/03 09:42:14;;;;;;;6.55;4.45;;;19.00;62.70;;;;;;6186264;23;20009;-88
2022/05/03 09:44:57;;;;;;;9.50;4.80;;;19.20;62.00;;;;;;6186143;23;20012;-89
2022/05/03 09:47:25;;;;;;;6.03;4.90;;;19.30;61.60;;;;;;6209563;23;20001;-88
2022/05/03 09:49:51;;;;;;;8.80;4.43;;;19.30;60.60;;;;;;6209800;23;20096;-88
2022/05/03 09:52:27;;;;;;;7.22;4.25;;;19.20;61.00;;;;;;6185998;23;20017;-89
2022/05/03 09:54:58;;;;;;;5.43;4.28;;;19.30;60.80;;;;;;6186240;23;20005;-88
2022/05/03 09:57:25;;;;;;;10.65;4.20;;;19.50;61.50;;;;;;6209648;23;20092;-88
2022/05/03 09:59:53;;;;;;;9.75;4.40;;;19.70;59.80;;;;;;6186690;23;20017;-89
2022/05/03 10:02:21;;;;;;;7.53;4.47;;;19.70;58.60;;;;;;6185972;23;20005;-87
2022/05/03 10:04:48;;;;;;;8.10;4.93;;;19.80;58.60;;;;;;6185595;23;20478;-89
2022/05/03 10:07:15;;;;;;;9.38;4.80;;;20.00;59.90;;;;;;6185597;23;20005;-88
2022/05/03 10:09:43;;;;;;;10.23;5.90;;;20.10;59.40;;;;;;6185708;23;20001;-89
2022/05/03 10:12:11;;;;;;;9.43;5.85;;;20.20;61.80;;;;;;6185810;23;20017;-88
2022/05/03 10:14:37;;;;;;;9.02;5.93;;;20.00;63.60;;;;;;6208850;23;20015;-88
2022/05/03 10:22:37;;;;;;;8.48;5.25;;;19.30;66.50;;;;;;6185575;23;20402;-88
2022/05/03 10:25:04;;;;;;;10.45;5.85;;;19.40;66.40;;;;;;6185073;23;20068;-88
2022/05/03 10:27:32;;;;;;;7.93;5.57;;;19.40;66.10;;;;;;6184919;23;20009;-87
2022/05/03 10:30:22;;;;;;;10.77;5.95;;;19.30;65.80;;;;;;6208424;23;20016;-88
2022/05/03 10:33:28;;;;;;;10.63;5.90;;;18.90;66.40;;;;;;6172993;23;20008;-88
2022/05/03 10:35:54;;;;;;;8.52;5.90;;;18.70;67.40;;;;;;6174708;23;20447;-87
2022/05/03 10:38:46;;;;;;;9.93;6.03;;;19.00;66.60;;;;;;6183269;23;20008;-87
2022/05/03 10:41:12;;;;;;;12.63;6.22;;;19.10;66.70;;;;;;6208026;23;20005;-87
2022/05/03 10:43:38;;;;;;;8.23;6.75;;;19.00;67.20;;;;;;6208707;23;20031;-87
2022/05/03 10:46:12;;;;;;;10.85;6.97;;;19.00;68.10;;;;;;6185617;23;20097;-87
2022/05/03 10:48:41;;;;;;;7.63;6.20;;;18.90;68.50;;;;;;6207982;23;20013;-87
2022/05/03 10:51:09;;;;;;;11.15;5.93;;;19.00;69.00;;;;;;6207611;23;20037;-88
2022/05/03 10:53:41;;;;;;;9.50;5.72;;;19.10;68.60;;;;;;6183207;23;20005;-88
2022/05/03 10:56:18;;;;;;;9.55;5.55;;;19.20;68.40;;;;;;6208492;23;20047;-88
2022/05/03 10:59:05;;;;;;;9.70;5.38;;;19.30;68.00;;;;;;6209051;23;20028;-89
2022/05/03 11:01:32;;;;;;;12.77;6.15;;;19.40;68.20;;;;;;6185490;23;20056;-88
2022/05/03 11:03:59;;;;;;;9.30;5.40;;;19.30;69.10;;;;;;6186560;23;20001;-88
2022/05/03 11:06:28;;;;;;;6.35;5.40;;;19.20;68.70;;;;;;6185631;23;20079;-88
2022/05/03 11:11:40;;;;;;;12.38;6.50;;;19.10;72.50;;;;;;6185547;23;20012;-89
2022/05/03 11:14:25;;;;;;;11.30;6.90;;;19.00;76.70;;;;;;6184841;23;20005;-89
2022/05/03 11:17:07;;;;;;;9.18;6.47;;;18.90;79.10;;;;;;6209090;23;20092;-89
2022/05/03 11:19:55;;;;;;;9.32;6.07;;;18.90;84.20;;;;;;6184463;23;20009;-89
2022/05/03 11:22:33;;;;;;;8.48;5.97;;;18.80;87.40;;;;;;6183713;23;20009;-88
2022/05/03 11:25:04;;;;;;;7.35;5.85;;;18.60;90.60;;;;;;6185734;23;20012;-89
2022/05/03 11:27:31;;;;;;;8.07;6.10;;;18.40;92.40;;;;;;6183707;23;20051;-87
2022/05/03 11:29:58;;;;;;;9.93;6.05;;;18.20;93.50;;;;;;6184716;23;20032;-89
2022/05/03 11:32:37;;;;;;;9.68;6.22;;;18.10;96.70;;;;;;6184237;23;20017;-89
2022/05/03 11:35:14;;;;;;;8.88;5.78;;;18.10;99.90;;;;;;6185081;23;20012;-90
2022/05/03 11:37:55;;;;;;;12.70;5.65;;;17.90;99.90;;;;;;6184674;23;20001;-90
2022/05/03 11:40:22;;;;;;;11.40;4.90;;;17.90;99.90;;;;;;6182832;23;20087;-90
2022/05/03 11:42:49;;;;;;;6.47;4.78;;;17.80;99.90;;;;;;6185766;23;20240;-90
2022/05/03 11:45:16;;;;;;;11.23;5.20;;;17.70;99.90;;;;;;6185757;23;20308;-89
2022/05/03 11:47:44;;;;;;;6.72;4.57;;;17.60;99.90;;;;;;6209426;23;20491;-90
2022/05/03 11:50:12;;;;;;;11.00;4.70;;;17.70;99.90;;;;;;6185465;23;20021;-89
2022/05/03 11:56:01;;;;;;;6.10;4.07;;;17.90;99.90;;;;;;6156125;23;20001;-90
2022/05/03 11:58:29;;;;;;;7.63;3.83;;;18.10;99.90;;;;;;6182916;23;20005;-87
2022/05/03 12:00:55;;;;;;;4.55;3.00;;;18.30;99.40;;;;;;6184916;23;19997;-87
2022/05/03 12:03:21;;;;;;;4.03;2.88;;;18.50;97.00;;;;;;6208937;23;20072;-88
2022/05/03 12:06:01;;;;;;;5.13;2.58;;;18.60;93.50;;;;;;6186892;23;20104;-88
2022/05/03 12:08:27;;;;;;;3.47;2.65;;;18.60;94.70;;;;;;6209470;23;20001;-88
2022/05/03 12:10:56;;;;;;;3.15;2.45;;;18.80;91.00;;;;;;6185919;23;20008;-89
2022/05/03 12:13:22;;;;;;;2.47;2.28;;;19.00;87.80;;;;;;6187292;23;20001;-88
2022/05/03 12:16:07;;;;;;;4.63;1.92;;;19.10;85.40;;;;;;6186066;23;19998;-89
2022/05/03 12:18:41;;;;;;;4.30;2.58;;;19.10;82.30;;;;;;6186755;23;20023;-89
2022/05/03 12:21:13;;;;;;;2.83;2.22;;;19.10;83.00;;;;;;6186321;23;20000;-90
2022/05/03 12:23:42;;;;;;;2.83;2.10;;;19.10;83.20;;;;;;6209949;23;20008;-89
2022/05/03 12:26:27;;;;;;;2.85;1.90;;;18.90;81.20;;;;;;6187051;23;20004;-90
2022/05/03 12:28:56;;;;;;;4.78;1.98;;;18.70;82.40;;;;;;6186823;23;20001;-90
2022/05/03 12:31:26;;;;;;;3.45;1.92;;;18.70;82.40;;;;;;6185914;23;20434;-90
2022/05/03 12:33:57;;;;;;;4.93;2.03;;;18.60;81.70;;;;;;6187102;23;20100;-90
2022/05/03 12:36:37;;;;;;;7.28;1.80;;;18.70;81.80;;;;;;6186893;23;20012;-88
2022/05/03 12:39:17;;;;;;;3.85;1.80;;;18.90;79.20;;;;;;6184514;23;20331;-88
2022/05/03 12:41:45;;;;;;;2.38;1.55;;;19.00;79.00;;;;;;6186966;23;20005;-91
2022/05/03 12:44:15;;;;;;;2.65;1.75;;;18.90;77.90;;;;;;6210429;23;20083;-89
2022/05/03 12:46:42;;;;;;;3.03;1.48;;;19.00;76.20;;;;;;6185234;23;20011;-89
2022/05/03 12:49:12;;;;;;;1.50;1.40;;;19.00;74.80;;;;;;6209928;23;20524;-89
2022/05/03 12:51:43;;;;;;;3.10;2.70;;;19.00;72.50;;;;;;6185984;23;20005;-89
2022/05/03 12:54:10;;;;;;;2.30;2.10;;;19.00;72.00;;;;;;6209064;23;20136;-91
2022/05/03 12:59:22;;;;;;;1.40;1.30;;;19.10;73.30;;;;;;6185863;23;20016;-91
2022/05/03 13:01:53;;;;;;;1.95;1.70;;;19.30;71.90;;;;;;6209599;23;20008;-91
2022/05/03 13:04:19;;;;;;;2.03;1.60;;;19.50;70.00;;;;;;6186525;23;20004;-91
2022/05/03 13:06:45;;;;;;;2.72;1.80;;;19.50;68.60;;;;;;6209239;23;20083;-91
2022/05/03 13:09:11;;;;;;;2.72;2.30;;;19.50;67.30;;;;;;6186910;23;20013;-92
2022/05/03 13:11:40;;;;;;;2.42;1.42;;;19.60;67.80;;;;;;6184320;23;20312;-91
2022/05/03 13:14:10;;;;;;;2.28;1.70;;;19.60;66.50;;;;;;6210109;23;20016;-91
2022/05/03 13:16:37;;;;;;;4.50;2.05;;;19.50;64.20;;;;;;6187851;23;20016;-89
2022/05/03 13:19:03;;;;;;;6.22;1.80;;;19.40;63.70;;;;;;6209614;23;20578;-90
2022/05/03 13:21:30;;;;;;;2.60;1.83;;;19.40;62.80;;;;;;6209454;23;20161;-91
2022/05/03 13:23:55;;;;;;;2.35;1.80;;;19.30;62.90;;;;;;6186145;23;20070;-89
2022/05/03 13:26:22;;;;;;;1.70;1.60;;;19.30;62.40;;;;;;6185432;23;20092;-90
2022/05/03 13:28:48;;;;;;;3.80;1.52;;;19.10;62.50;;;;;;6186625;23;20024;-90
2022/05/03 13:31:13;;;;;;;1.92;1.67;;;19.10;63.50;;;;;;6186189;23;20083;-91
2022/05/03 13:33:43;;;;;;;3.05;1.80;;;19.30;63.00;;;;;;6187029;23;20489;-90
2022/05/03 13:41:36;;;;;;;7.60;2.20;;;19.20;62.10;;;;;;6185762;23;20007;-90
2022/05/03 13:44:05;;;;;;;1.60;1.50;;;19.20;61.80;;;;;;6210108;23;20009;-90
2022/05/03 13:46:30;;;;;;;3.15;1.85;;;19.00;62.50;;;;;;6183910;23;20005;-90
2022/05/03 13:48:56;;;;;;;2.50;1.95;;;19.00;63.10;;;;;;6208746;23;20523;-88
2022/05/03 13:51:22;;;;;;;3.55;1.98;;;19.00;62.10;;;;;;6186610;23;20081;-88
2022/05/03 13:53:47;;;;;;;3.75;1.95;;;19.00;62.00;;;;;;6209716;23;20009;-90
2022/05/03 13:56:16;;;;;;;4.25;2.20;;;18.90;62.50;;;;;;6186146;23;20009;-90
2022/05/03 13:58:42;;;;;;;2.65;2.03;;;18.80;63.50;;;;;;6184757;23;20005;-90
2022/05/03 14:03:45;;;;;;;3.42;2.15;;;18.60;63.70;;;;;;6182356;23;20029;-88